createdAt,value
2019-06-26T00:00:17.205Z,43.60
2019-06-26T00:02:47.178Z,46.80
2019-06-26T00:05:16.531Z,47.43
2019-06-26T00:07:45.927Z,47.35
2019-06-26T00:10:15.738Z,46.75
2019-06-26T00:12:45.911Z,49.25
2019-06-26T00:15:16.445Z,50.75
2019-06-26T00:17:45.756Z,49.60
2019-06-26T00:20:15.985Z,48.80
2019-06-26T00:22:45.299Z,45.17
2019-06-26T00:25:14.919Z,43.98
2019-06-26T00:27:44.228Z,43.17
2019-06-26T00:30:14.358Z,42.03
2019-06-26T00:32:43.674Z,42.93
2019-06-26T00:35:13.068Z,43.40
2019-06-26T00:37:42.741Z,40.55
2019-06-26T00:40:12.752Z,41.50
2019-06-26T00:42:42.322Z,45.25
2019-06-26T00:45:12.504Z,45.65
2019-06-26T00:47:41.824Z,46.02
2019-06-26T00:50:12.689Z,42.20
2019-06-26T00:52:42.081Z,41.80
2019-06-26T00:55:11.730Z,40.43
2019-06-26T00:57:41.043Z,39.40
2019-06-26T01:00:12.966Z,37.65
2019-06-26T01:02:42.293Z,35.65
2019-06-26T01:05:13.185Z,35.48
2019-06-26T01:07:42.512Z,34.75
2019-06-26T01:10:13.628Z,34.65
2019-06-26T01:12:42.971Z,34.15
2019-06-26T01:15:13.160Z,33.80
2019-06-26T01:21:12.451Z,35.05
2019-06-26T01:23:41.779Z,36.35
2019-06-26T01:26:11.115Z,35.70
2019-06-26T01:28:40.420Z,35.33
2019-06-26T01:31:09.741Z,34.25
2019-06-26T01:33:39.068Z,36.73
2019-06-26T01:36:08.687Z,36.75
2019-06-26T01:38:38.011Z,37.60
2019-06-26T01:41:07.347Z,36.68
2019-06-26T01:43:36.722Z,38.28
2019-06-26T01:46:06.034Z,38.33
2019-06-26T01:48:35.357Z,38.10
2019-06-26T01:51:04.822Z,38.85
2019-06-26T01:53:34.148Z,37.53
2019-06-26T01:56:03.456Z,38.02
2019-06-26T01:58:32.778Z,35.35
2019-06-26T02:01:02.094Z,35.60
2019-06-26T02:03:31.428Z,34.60
2019-06-26T02:06:00.799Z,34.92
2019-06-26T02:08:30.113Z,32.17
2019-06-26T02:10:59.441Z,33.55
2019-06-26T02:13:28.762Z,37.00
2019-06-26T02:15:58.081Z,38.50
2019-06-26T02:18:40.703Z,38.83
2019-06-26T02:21:10.153Z,40.10
2019-06-26T02:23:39.726Z,38.25
2019-06-26T02:26:09.036Z,38.70
2019-06-26T02:28:38.369Z,38.78
2019-06-26T02:31:07.691Z,39.03
2019-06-26T02:33:37.065Z,38.53
2019-06-26T02:36:06.426Z,39.90
2019-06-26T02:38:35.731Z,39.90
2019-06-26T02:41:05.107Z,39.73
2019-06-26T02:43:34.434Z,39.73
2019-06-26T02:46:03.894Z,39.90
2019-06-26T02:48:33.234Z,39.13
2019-06-26T02:51:02.563Z,39.30
2019-06-26T02:53:31.880Z,41.28
2019-06-26T02:56:01.201Z,39.35
2019-06-26T02:58:30.585Z,40.80
2019-06-26T03:00:59.997Z,41.85
2019-06-26T03:03:29.314Z,41.05
2019-06-26T03:06:02.034Z,41.25
2019-06-26T03:08:31.627Z,42.30
2019-06-26T03:11:01.245Z,40.58
2019-06-26T03:13:30.568Z,42.93
2019-06-26T03:15:59.893Z,42.73
2019-06-26T03:18:29.260Z,45.83
2019-06-26T03:20:58.776Z,46.55
2019-06-26T03:23:28.080Z,46.15
2019-06-26T03:25:57.400Z,47.55
2019-06-26T03:28:26.734Z,48.30
2019-06-26T03:30:56.047Z,51.35
2019-06-26T03:33:25.654Z,52.27
2019-06-26T03:35:54.984Z,47.30
2019-06-26T03:38:24.332Z,47.45
2019-06-26T03:40:56.714Z,49.73
2019-06-26T03:43:26.021Z,50.70
2019-06-26T03:45:55.377Z,50.17
2019-06-26T03:48:24.706Z,50.15
2019-06-26T03:50:54.045Z,51.00
2019-06-26T03:53:23.330Z,55.80
2019-06-26T03:55:52.644Z,50.88
2019-06-26T03:58:21.960Z,50.50
2019-06-26T04:00:51.275Z,51.33
2019-06-26T04:03:20.585Z,51.75
2019-06-26T04:05:49.937Z,55.05
2019-06-26T04:08:19.240Z,52.62
2019-06-26T04:10:48.555Z,51.20
2019-06-26T04:13:20.686Z,52.15
2019-06-26T04:15:51.051Z,53.68
2019-06-26T04:18:20.721Z,52.80
2019-06-26T04:20:50.041Z,51.53
2019-06-26T04:23:19.653Z,52.45
2019-06-26T04:25:49.006Z,52.80
2019-06-26T04:28:18.343Z,54.55
2019-06-26T04:30:47.673Z,52.60
2019-06-26T04:33:16.998Z,55.30
2019-06-26T04:35:46.322Z,55.05
2019-06-26T04:38:15.663Z,56.50
2019-06-26T04:40:45.023Z,56.15
2019-06-26T04:43:14.373Z,52.23
2019-06-26T04:45:57.272Z,55.25
2019-06-26T04:48:14.732Z,57.98
2019-06-26T04:50:44.405Z,56.85
2019-06-26T04:53:13.713Z,57.80
2019-06-26T04:55:43.041Z,55.88
2019-06-26T04:58:12.349Z,59.45
2019-06-26T05:00:41.680Z,60.38
2019-06-26T05:03:11.022Z,58.02
2019-06-26T05:05:40.480Z,60.33
2019-06-26T05:08:09.827Z,62.78
2019-06-26T05:10:39.137Z,67.87
2019-06-26T05:13:08.487Z,64.17
2019-06-26T05:15:37.798Z,63.38
2019-06-26T05:18:07.504Z,61.73
2019-06-26T05:20:36.852Z,64.60
2019-06-26T05:23:06.193Z,63.08
2019-06-26T05:25:35.512Z,59.05
2019-06-26T05:28:08.282Z,62.85
2019-06-26T05:30:36.443Z,67.37
2019-06-26T05:33:05.788Z,63.98
2019-06-26T05:35:35.447Z,66.67
2019-06-26T05:38:05.117Z,65.67
2019-06-26T05:40:34.507Z,65.97
2019-06-26T05:43:03.821Z,68.75
2019-06-26T05:45:33.138Z,67.47
2019-06-26T05:48:02.900Z,69.70
2019-06-26T05:50:32.485Z,64.20
2019-06-26T05:53:01.835Z,66.70
2019-06-26T05:55:31.171Z,69.42
2019-06-26T05:58:00.490Z,68.85
2019-06-26T06:00:29.841Z,69.72
2019-06-26T06:02:59.293Z,68.20
2019-06-26T06:05:28.666Z,63.78
2019-06-26T06:07:58.015Z,67.50
2019-06-26T06:10:27.418Z,68.25
2019-06-26T06:12:56.832Z,67.78
2019-06-26T06:15:26.179Z,66.72
2019-06-26T06:17:55.510Z,66.85
2019-06-26T06:20:35.356Z,68.40
2019-06-26T06:23:04.769Z,67.47
2019-06-26T06:25:34.444Z,65.42
2019-06-26T06:28:04.290Z,70.95
2019-06-26T06:30:33.671Z,68.05
2019-06-26T06:33:02.967Z,70.40
2019-06-26T06:35:32.597Z,71.75
2019-06-26T06:38:01.958Z,71.72
2019-06-26T06:40:31.272Z,70.60
2019-06-26T06:43:00.668Z,72.35
2019-06-26T06:45:30.304Z,69.22
2019-06-26T06:47:59.661Z,71.07
2019-06-26T06:50:29.070Z,68.57
2019-06-26T06:52:58.448Z,70.05
2019-06-26T06:55:27.728Z,64.07
2019-06-26T06:57:57.081Z,69.20
2019-06-26T07:00:27.130Z,68.35
2019-06-26T07:02:56.474Z,69.80
2019-06-26T07:05:25.845Z,71.40
2019-06-26T07:07:55.129Z,68.05
2019-06-26T07:10:24.465Z,69.77
2019-06-26T07:12:53.813Z,68.90
2019-06-26T07:15:23.635Z,68.87
2019-06-26T07:17:54.394Z,69.82
2019-06-26T07:20:24.093Z,65.87
2019-06-26T07:22:53.455Z,70.90
2019-06-26T07:25:22.794Z,66.30
2019-06-26T07:27:52.154Z,66.90
2019-06-26T07:30:22.245Z,69.37
2019-06-26T07:32:51.568Z,68.20
2019-06-26T07:35:20.901Z,65.28
2019-06-26T07:37:50.244Z,64.70
2019-06-26T07:40:19.930Z,64.55
2019-06-26T07:42:49.261Z,68.67
2019-06-26T07:45:18.775Z,66.90
2019-06-26T07:47:48.428Z,61.88
2019-06-26T07:50:18.861Z,66.28
2019-06-26T07:52:48.206Z,70.50
2019-06-26T07:55:17.635Z,68.35
2019-06-26T07:57:47.006Z,67.80
2019-06-26T08:00:17.078Z,65.50
2019-06-26T08:02:46.422Z,70.28
2019-06-26T08:05:17.181Z,69.00
2019-06-26T08:07:46.490Z,65.67
2019-06-26T08:10:16.006Z,67.60
2019-06-26T08:12:45.318Z,67.87
2019-06-26T08:15:14.778Z,65.08
2019-06-26T08:17:59.311Z,65.00
2019-06-26T08:20:16.137Z,64.22
2019-06-26T08:22:45.447Z,64.87
2019-06-26T08:25:17.738Z,69.75
2019-06-26T08:27:47.044Z,67.92
2019-06-26T08:30:17.538Z,65.45
2019-06-26T08:32:46.883Z,62.95
2019-06-26T08:35:16.845Z,65.20
2019-06-26T08:37:46.256Z,63.48
2019-06-26T08:40:16.444Z,62.75
2019-06-26T08:42:45.752Z,66.60
2019-06-26T08:45:19.522Z,67.20
2019-06-26T08:47:48.887Z,69.55
2019-06-26T08:50:20.065Z,64.05
2019-06-26T08:52:49.758Z,63.95
2019-06-26T08:55:19.184Z,62.20
2019-06-26T08:57:48.453Z,61.33
2019-06-26T09:00:19.128Z,63.08
2019-06-26T09:02:48.786Z,64.35
2019-06-26T09:05:18.865Z,64.55
2019-06-26T09:07:48.221Z,60.92
2019-06-26T09:10:18.397Z,60.03
2019-06-26T09:12:47.712Z,60.33
2019-06-26T09:15:17.165Z,60.23
2019-06-26T09:17:46.520Z,59.40
2019-06-26T09:20:20.504Z,60.30
2019-06-26T09:22:49.864Z,62.78
2019-06-26T09:25:22.642Z,54.35
2019-06-26T09:27:52.226Z,59.45
2019-06-26T09:30:22.050Z,56.70
2019-06-26T09:32:51.374Z,54.77
2019-06-26T09:35:20.712Z,57.80
2019-06-26T09:37:50.063Z,58.33
2019-06-26T09:40:19.605Z,56.50
2019-06-26T09:42:48.927Z,58.20
2019-06-26T09:45:18.435Z,58.83
2019-06-26T09:47:47.830Z,53.00
2019-06-26T09:50:18.271Z,54.38
2019-06-26T09:52:47.580Z,53.63
2019-06-26T09:55:17.736Z,58.45
2019-06-26T09:57:47.043Z,52.27
2019-06-26T10:00:20.884Z,61.02
2019-06-26T10:02:50.292Z,55.92
2019-06-26T10:05:22.653Z,54.30
2019-06-26T10:07:51.966Z,54.33
2019-06-26T10:10:22.353Z,60.58
2019-06-26T10:12:51.761Z,54.27
2019-06-26T10:15:21.248Z,62.35
2019-06-26T10:17:50.908Z,58.50
2019-06-26T10:20:20.863Z,54.65
2019-06-26T10:22:50.218Z,60.75
2019-06-26T10:25:19.697Z,53.08
2019-06-26T10:27:49.080Z,59.63
2019-06-26T10:30:19.364Z,56.88
2019-06-26T10:32:48.784Z,52.67
2019-06-26T10:35:19.409Z,64.90
2019-06-26T10:37:48.750Z,52.70
2019-06-26T10:40:18.317Z,52.10
2019-06-26T10:42:47.640Z,58.20
2019-06-26T10:45:17.205Z,68.70
2019-06-26T10:47:46.521Z,78.90
2019-06-26T10:50:16.812Z,64.50
2019-06-26T10:52:46.166Z,67.62
2019-06-26T10:55:16.627Z,62.60
2019-06-26T10:57:45.998Z,67.80
2019-06-26T11:00:17.242Z,63.80
2019-06-26T11:02:46.665Z,58.38
2019-06-26T11:05:16.915Z,56.25
2019-06-26T11:07:46.245Z,67.80
2019-06-26T11:10:17.891Z,54.65
2019-06-26T11:12:49.068Z,56.18
2019-06-26T11:15:18.679Z,63.05
2019-06-26T11:17:47.995Z,55.90
2019-06-26T11:20:18.004Z,57.27
2019-06-26T11:22:47.420Z,52.93
2019-06-26T11:25:20.663Z,54.05
2019-06-26T11:27:49.979Z,50.55
2019-06-26T11:30:21.912Z,54.95
2019-06-26T11:32:51.223Z,57.58
2019-06-26T11:35:20.568Z,61.68
2019-06-26T11:37:49.888Z,56.58
2019-06-26T11:40:19.489Z,47.05
2019-06-26T11:42:48.802Z,49.40
2019-06-26T11:45:18.949Z,53.92
2019-06-26T11:47:48.278Z,50.90
2019-06-26T11:50:19.591Z,49.85
2019-06-26T11:52:48.931Z,57.58
2019-06-26T11:55:19.297Z,55.65
2019-06-26T11:57:48.936Z,46.60
2019-06-26T12:00:22.617Z,46.45
2019-06-26T12:02:51.982Z,44.18
2019-06-26T12:05:24.960Z,62.17
2019-06-26T12:07:54.366Z,53.68
2019-06-26T12:10:24.608Z,52.08
2019-06-26T12:12:54.199Z,43.73
2019-06-26T12:15:25.715Z,48.73
2019-06-26T12:17:54.996Z,50.17
2019-06-26T12:20:24.378Z,42.78
2019-06-26T12:22:53.715Z,45.20
2019-06-26T12:25:23.055Z,40.25
2019-06-26T12:27:52.677Z,39.23
2019-06-26T12:30:22.834Z,34.55
2019-06-26T12:33:03.042Z,45.45
2019-06-26T12:35:23.210Z,54.13
2019-06-26T12:37:52.615Z,42.20
2019-06-26T12:40:22.464Z,41.90
2019-06-26T12:42:55.487Z,39.15
2019-06-26T12:45:23.291Z,39.20
2019-06-26T12:47:52.645Z,37.50
2019-06-26T12:50:34.853Z,35.40
2019-06-26T12:52:55.275Z,35.35
2019-06-26T12:55:24.585Z,33.08
2019-06-26T12:57:53.908Z,34.85
2019-06-26T13:00:23.791Z,37.25
2019-06-26T13:02:53.120Z,42.27
2019-06-26T13:05:25.742Z,41.95
2019-06-26T13:07:55.059Z,47.05
2019-06-26T13:10:24.886Z,43.02
2019-06-26T13:12:54.239Z,44.42
2019-06-26T13:15:23.609Z,43.92
2019-06-26T13:17:52.970Z,42.50
2019-06-26T13:20:22.303Z,42.35
2019-06-26T13:22:51.941Z,36.35
2019-06-26T13:25:21.222Z,37.90
2019-06-26T13:27:50.559Z,44.25
2019-06-26T13:30:27.316Z,42.38
2019-06-26T13:32:56.676Z,43.23
2019-06-26T13:35:26.007Z,40.25
2019-06-26T13:37:55.314Z,36.40
2019-06-26T13:40:24.663Z,31.12
2019-06-26T13:42:53.985Z,33.35
2019-06-26T13:45:23.317Z,32.35
2019-06-26T13:47:52.654Z,32.28
2019-06-26T13:50:22.300Z,34.20
2019-06-26T13:52:51.645Z,31.30
2019-06-26T13:55:21.133Z,29.77
2019-06-26T13:57:50.514Z,30.05
2019-06-26T14:00:20.951Z,25.05
2019-06-26T14:02:50.259Z,28.35
2019-06-26T14:05:20.561Z,27.35
2019-06-26T14:07:49.891Z,22.80
2019-06-26T14:10:19.845Z,31.00
2019-06-26T14:12:49.183Z,30.40
2019-06-26T14:15:19.064Z,31.05
2019-06-26T14:17:48.383Z,26.25
2019-06-26T14:20:21.162Z,21.55
2019-06-26T14:22:51.239Z,26.40
2019-06-26T14:25:20.656Z,22.65
2019-06-26T14:27:49.995Z,21.12
2019-06-26T14:30:20.272Z,21.82
2019-06-26T14:32:49.584Z,20.12
2019-06-26T14:35:19.070Z,20.92
2019-06-26T14:37:48.403Z,20.12
2019-06-26T14:40:20.493Z,18.98
2019-06-26T14:42:49.839Z,21.85
2019-06-26T14:45:20.052Z,18.35
2019-06-26T14:47:49.365Z,15.83
2019-06-26T14:50:19.223Z,19.32
2019-06-26T14:52:48.817Z,18.87
2019-06-26T14:55:18.377Z,18.17
2019-06-26T14:57:47.718Z,19.10
2019-06-26T15:00:18.141Z,15.23
2019-06-26T15:02:47.463Z,16.02
2019-06-26T15:05:16.922Z,16.40
2019-06-26T15:07:49.851Z,18.37
2019-06-26T15:10:18.237Z,17.65
2019-06-26T15:12:47.827Z,16.20
2019-06-26T15:15:18.478Z,17.23
2019-06-26T15:17:47.828Z,17.42
2019-06-26T15:20:17.874Z,17.90
2019-06-26T15:22:47.479Z,16.45
2019-06-26T15:25:17.870Z,17.10
2019-06-26T15:27:47.212Z,14.38
2019-06-26T15:30:17.790Z,17.00
2019-06-26T15:32:47.353Z,17.50
2019-06-26T15:35:17.072Z,15.95
2019-06-26T15:37:48.005Z,15.40
2019-06-26T15:40:17.847Z,15.25
2019-06-26T15:42:49.036Z,14.55
2019-06-26T15:45:20.768Z,16.35
2019-06-26T15:47:50.680Z,15.83
2019-06-26T15:50:21.161Z,15.93
2019-06-26T15:52:50.472Z,14.28
2019-06-26T15:55:19.867Z,16.40
2019-06-26T15:57:52.268Z,16.52
2019-06-26T16:00:21.748Z,15.35
2019-06-26T16:02:51.096Z,16.45
2019-06-26T16:05:20.410Z,15.50
2019-06-26T16:07:49.721Z,15.78
2019-06-26T16:10:19.302Z,12.35
2019-06-26T16:12:48.608Z,15.03
2019-06-26T16:15:18.978Z,16.00
2019-06-26T16:17:58.813Z,15.63
2019-06-26T16:20:28.165Z,16.05
2019-06-26T16:22:57.490Z,16.67
2019-06-26T16:25:26.800Z,17.02
2019-06-26T16:28:05.177Z,16.10
2019-06-26T16:30:27.549Z,17.12
2019-06-26T16:32:57.178Z,15.20
2019-06-26T16:35:26.574Z,14.33
2019-06-26T16:37:55.892Z,14.35
2019-06-26T16:40:25.197Z,15.48
2019-06-26T16:42:54.565Z,14.60
2019-06-26T16:45:23.899Z,13.30
2019-06-26T16:47:53.224Z,14.03
2019-06-26T16:50:22.520Z,13.40
2019-06-26T16:52:51.866Z,13.65
2019-06-26T16:55:21.179Z,12.88
2019-06-26T16:57:50.530Z,11.10
2019-06-26T17:00:20.550Z,13.03
2019-06-26T17:02:49.886Z,10.80
2019-06-26T17:05:19.184Z,11.57
2019-06-26T17:07:48.505Z,11.18
2019-06-26T17:10:18.559Z,12.37
2019-06-26T17:12:47.909Z,11.83
2019-06-26T17:15:17.615Z,11.57
2019-06-26T17:17:46.975Z,10.55
2019-06-26T17:20:18.123Z,11.70
2019-06-26T17:22:47.439Z,11.70
2019-06-26T17:25:16.813Z,10.75
2019-06-26T17:27:46.124Z,12.40
2019-06-26T17:30:15.993Z,11.03
2019-06-26T17:32:45.302Z,11.83
2019-06-26T17:35:14.799Z,11.25
2019-06-26T17:37:44.142Z,11.10
2019-06-26T17:40:14.404Z,12.07
2019-06-26T17:42:43.745Z,10.88
2019-06-26T17:45:14.104Z,12.43
2019-06-26T17:47:43.414Z,13.30
2019-06-26T17:50:12.945Z,11.03
2019-06-26T17:52:42.252Z,10.95
2019-06-26T17:55:12.045Z,11.53
2019-06-26T17:57:41.399Z,10.30
2019-06-26T18:00:14.356Z,10.70
2019-06-26T18:02:43.661Z,10.30
2019-06-26T18:05:13.370Z,8.75
2019-06-26T18:07:42.670Z,9.83
2019-06-26T18:10:12.191Z,9.30
2019-06-26T18:12:44.308Z,10.60
2019-06-26T18:15:13.798Z,9.93
2019-06-26T18:17:43.130Z,9.83
2019-06-26T18:20:12.959Z,10.43
2019-06-26T18:22:42.535Z,10.13
2019-06-26T18:25:12.006Z,10.38
2019-06-26T18:27:44.190Z,9.43
2019-06-26T18:30:14.843Z,7.62
2019-06-26T18:32:44.179Z,10.43
2019-06-26T18:35:14.619Z,9.68
2019-06-26T18:37:43.927Z,9.38
2019-06-26T18:40:13.984Z,9.45
2019-06-26T18:42:43.771Z,9.80
2019-06-26T18:45:13.355Z,9.90
2019-06-26T18:47:42.682Z,9.43
2019-06-26T18:50:12.542Z,9.73
2019-06-26T18:52:41.830Z,10.55
2019-06-26T18:55:11.303Z,10.88
2019-06-26T18:57:40.626Z,8.95
2019-06-26T19:00:11.077Z,9.30
2019-06-26T19:02:40.373Z,9.95
2019-06-26T19:05:11.339Z,9.55
2019-06-26T19:07:40.644Z,9.10
2019-06-26T19:10:10.998Z,9.73
2019-06-26T19:12:40.322Z,10.20
2019-06-26T19:15:10.756Z,9.85
2019-06-26T19:17:42.577Z,10.68
2019-06-26T19:20:12.307Z,11.15
2019-06-26T19:22:41.605Z,8.80
2019-06-26T19:25:12.043Z,8.75
2019-06-26T19:27:41.348Z,8.50
2019-06-26T19:30:11.287Z,8.43
2019-06-26T19:32:40.607Z,8.08
2019-06-26T19:35:25.447Z,8.63
2019-06-26T19:37:41.303Z,7.72
2019-06-26T19:40:11.308Z,7.65
2019-06-26T19:42:40.884Z,8.30
2019-06-26T19:45:14.122Z,6.78
2019-06-26T19:47:43.723Z,7.33
2019-06-26T19:50:14.552Z,6.87
2019-06-26T19:52:43.879Z,6.15
2019-06-26T19:55:14.302Z,6.87
2019-06-26T19:57:43.624Z,7.30
2019-06-26T20:00:13.451Z,7.50
2019-06-26T20:02:42.772Z,6.72
2019-06-26T20:05:13.100Z,6.95
2019-06-26T20:07:42.719Z,6.30
2019-06-26T20:10:13.231Z,6.08
2019-06-26T20:12:42.617Z,6.47
2019-06-26T20:15:12.062Z,5.40
2019-06-26T20:17:41.421Z,5.47
2019-06-26T20:20:12.571Z,5.12
2019-06-26T20:22:49.599Z,5.62
2019-06-26T20:25:19.012Z,5.40
2019-06-26T20:27:48.348Z,4.87
2019-06-26T20:30:21.191Z,4.58
2019-06-26T20:32:50.529Z,4.42
2019-06-26T20:35:20.197Z,4.75
2019-06-26T20:37:49.557Z,4.70
2019-06-26T20:40:19.099Z,4.22
2019-06-26T20:42:48.437Z,4.22
2019-06-26T20:45:17.972Z,4.45
2019-06-26T20:47:47.344Z,4.10
2019-06-26T20:50:16.781Z,3.50
2019-06-26T20:52:46.127Z,3.87
2019-06-26T20:55:15.602Z,3.83
2019-06-26T20:57:44.913Z,3.52
2019-06-26T21:00:14.931Z,3.22
2019-06-26T21:02:44.265Z,3.45
2019-06-26T21:05:14.108Z,3.47
2019-06-26T21:07:43.443Z,3.52
2019-06-26T21:10:13.509Z,3.87
2019-06-26T21:12:42.842Z,3.42
2019-06-26T21:15:12.689Z,3.42
2019-06-26T21:17:42.269Z,3.92
2019-06-26T21:20:11.673Z,3.12
2019-06-26T21:22:41.010Z,3.33
2019-06-26T21:25:18.178Z,3.33
2019-06-26T21:27:41.511Z,3.20
2019-06-26T21:30:11.260Z,3.33
2019-06-26T21:32:40.570Z,3.15
2019-06-26T21:35:10.342Z,3.22
2019-06-26T21:37:39.711Z,4.70
2019-06-26T21:40:09.823Z,3.30
2019-06-26T21:42:39.132Z,3.40
2019-06-26T21:45:09.452Z,3.70
2019-06-26T21:47:38.783Z,3.08
2019-06-26T21:50:08.537Z,3.27
2019-06-26T21:52:37.871Z,3.30
2019-06-26T21:55:07.940Z,3.42
2019-06-26T21:57:37.245Z,3.67
2019-06-26T22:00:09.415Z,3.72
2019-06-26T22:02:38.772Z,3.10
2019-06-26T22:05:09.903Z,3.12
2019-06-26T22:07:39.269Z,3.65
2019-06-26T22:10:15.554Z,3.10
2019-06-26T22:12:44.885Z,3.17
2019-06-26T22:15:16.134Z,3.37
2019-06-26T22:17:45.467Z,3.15
2019-06-26T22:20:16.784Z,3.20
2019-06-26T22:22:46.145Z,3.22
2019-06-26T22:25:16.524Z,3.27
2019-06-26T22:27:45.860Z,3.37
2019-06-26T22:30:17.606Z,3.25
2019-06-26T22:32:47.191Z,3.12
2019-06-26T22:35:16.725Z,2.92
2019-06-26T22:37:46.036Z,2.90
2019-06-26T22:40:15.686Z,3.40
2019-06-26T22:42:45.490Z,2.72
2019-06-26T22:45:15.428Z,3.20
2019-06-26T22:47:44.756Z,3.30
2019-06-26T22:50:14.884Z,2.80
2019-06-26T22:52:44.177Z,2.98
2019-06-26T22:55:14.056Z,3.15
2019-06-26T22:57:43.434Z,3.20
2019-06-26T23:00:15.456Z,2.77
2019-06-26T23:02:44.921Z,2.83
2019-06-26T23:05:14.365Z,3.00
2019-06-26T23:07:43.697Z,2.95
2019-06-26T23:10:13.835Z,3.08
2019-06-26T23:12:43.159Z,3.00
2019-06-26T23:15:13.603Z,2.60
2019-06-26T23:17:42.926Z,2.75
2019-06-26T23:20:12.497Z,3.70
2019-06-26T23:22:41.824Z,3.25
2019-06-26T23:25:11.220Z,2.70
2019-06-26T23:27:40.589Z,2.65
2019-06-26T23:30:18.963Z,2.80
2019-06-26T23:32:48.539Z,3.02
2019-06-26T23:35:17.891Z,3.10
2019-06-26T23:37:47.197Z,2.75
2019-06-26T23:40:18.737Z,2.83
2019-06-26T23:42:48.087Z,3.17
2019-06-26T23:45:18.229Z,2.65
2019-06-26T23:47:47.550Z,2.83
2019-06-26T23:50:16.945Z,3.05
2019-06-26T23:52:46.289Z,3.12
2019-06-26T23:55:15.623Z,3.10
2019-06-26T23:57:58.458Z,3.12
